Time;durP1;ratioP1;P1;durP2;ratioP2;P2;SDS_P1;SDS_P2;PMS_P1;PMS_P2;Temp;Humidity;BMP_temperature;BMP_pressure;BME280_temperature;BME280_humidity;BME280_pressure;Samples;Min_cycle;Max_cycle;Signal;HPM_P1;HPM_P2
2021/09/10 00:01:31;;;;;;;18.75;8.30;;;19.40;99.90;;;;;;5032713;28;20520;-69
2021/09/10 00:04:01;;;;;;;16.77;9.05;;;19.50;99.90;;;;;;5041430;28;20053;-69
2021/09/10 00:06:28;;;;;;;16.45;8.95;;;19.60;99.90;;;;;;5046865;28;20019;-69
2021/09/10 00:08:54;;;;;;;16.55;8.38;;;19.70;99.90;;;;;;5033434;28;20029;-69
2021/09/10 00:11:20;;;;;;;15.73;8.32;;;19.60;99.90;;;;;;5047222;28;20021;-69
2021/09/10 00:13:45;;;;;;;15.90;8.52;;;19.60;99.90;;;;;;5037275;28;20028;-69
2021/09/10 00:16:11;;;;;;;16.30;9.07;;;19.60;99.90;;;;;;5043890;28;20516;-69
2021/09/10 00:18:37;;;;;;;16.92;8.45;;;19.60;99.90;;;;;;5062993;28;20029;-69
2021/09/10 00:21:02;;;;;;;12.43;7.47;;;19.60;99.90;;;;;;5044510;28;20097;-69
2021/09/10 00:23:28;;;;;;;14.45;8.15;;;19.60;99.90;;;;;;5046527;28;20082;-69
2021/09/10 00:25:54;;;;;;;18.70;8.32;;;19.60;99.90;;;;;;5049106;28;20151;-69
2021/09/10 00:28:21;;;;;;;19.00;8.32;;;19.70;99.90;;;;;;5050817;28;20104;-69
2021/09/10 00:30:46;;;;;;;15.50;8.05;;;19.70;99.90;;;;;;5052307;28;20036;-69
2021/09/10 00:33:12;;;;;;;14.98;7.70;;;19.60;99.90;;;;;;5037332;28;20029;-69
2021/09/10 00:35:37;;;;;;;15.48;8.52;;;19.60;99.90;;;;;;5068066;28;20031;-69
2021/09/10 00:38:03;;;;;;;17.02;8.85;;;19.60;99.90;;;;;;5051276;28;20025;-69
2021/09/10 00:40:29;;;;;;;16.40;9.10;;;19.50;99.90;;;;;;5050723;28;20021;-69
2021/09/10 00:42:54;;;;;;;17.27;8.52;;;19.50;99.90;;;;;;5052444;28;20495;-69
2021/09/10 00:45:20;;;;;;;18.58;10.30;;;19.50;99.90;;;;;;5052191;28;20109;-69
2021/09/10 00:47:45;;;;;;;18.52;8.90;;;19.50;99.90;;;;;;5052406;28;20037;-69
2021/09/10 00:50:12;;;;;;;15.18;8.30;;;19.40;99.90;;;;;;5051954;28;20033;-68
2021/09/10 00:52:38;;;;;;;17.33;9.18;;;19.40;99.90;;;;;;5051364;28;20020;-68
2021/09/10 00:55:04;;;;;;;18.92;8.77;;;19.40;99.90;;;;;;5052343;28;20021;-68
2021/09/10 00:57:30;;;;;;;16.98;9.43;;;19.40;99.90;;;;;;5045067;28;20549;-68
2021/09/10 00:59:55;;;;;;;20.13;9.70;;;19.30;99.90;;;;;;5043541;28;20100;-68
2021/09/10 01:02:21;;;;;;;16.08;8.65;;;19.30;99.90;;;;;;5050970;28;20063;-68
2021/09/10 01:04:47;;;;;;;16.58;9.07;;;19.30;99.90;;;;;;5052229;28;20032;-68
2021/09/10 01:07:13;;;;;;;18.48;9.35;;;19.30;99.90;;;;;;5051809;28;20037;-68
2021/09/10 01:09:39;;;;;;;16.55;9.73;;;19.30;99.90;;;;;;5052236;28;20485;-68
2021/09/10 01:12:06;;;;;;;17.23;8.85;;;19.20;99.90;;;;;;5052239;28;20036;-68
2021/09/10 01:14:33;;;;;;;16.00;9.15;;;19.20;99.90;;;;;;5051325;28;20021;-68
2021/09/10 01:16:58;;;;;;;17.00;8.90;;;19.20;99.90;;;;;;5052034;28;20040;-68
2021/09/10 01:19:30;;;;;;;17.98;9.60;;;19.20;99.90;;;;;;5050876;28;20045;-69
2021/09/10 01:21:59;;;;;;;19.45;9.80;;;19.10;99.90;;;;;;5051886;28;20024;-69
2021/09/10 01:24:30;;;;;;;16.35;9.10;;;19.10;99.90;;;;;;5051368;28;20029;-69
2021/09/10 01:26:56;;;;;;;15.52;8.75;;;19.10;99.90;;;;;;5051887;28;20032;-69
2021/09/10 01:29:22;;;;;;;17.38;9.43;;;19.10;99.90;;;;;;5050908;28;20036;-69
2021/09/10 01:31:48;;;;;;;16.30;8.95;;;19.10;99.90;;;;;;5044196;28;20486;-69
2021/09/10 01:34:13;;;;;;;21.75;9.77;;;19.10;99.90;;;;;;5044775;28;20025;-69
2021/09/10 01:36:39;;;;;;;16.08;9.27;;;19.10;99.90;;;;;;5051503;28;20028;-69
2021/09/10 01:39:05;;;;;;;16.63;9.50;;;19.10;99.90;;;;;;5051541;28;20070;-69
2021/09/10 01:41:30;;;;;;;15.68;8.95;;;19.10;99.90;;;;;;5050995;28;20405;-69
2021/09/10 01:43:56;;;;;;;19.88;9.13;;;19.10;99.90;;;;;;5046495;28;20014;-69
2021/09/10 01:46:21;;;;;;;16.50;8.70;;;19.20;99.90;;;;;;5042649;28;20025;-69
2021/09/10 01:48:49;;;;;;;16.45;9.00;;;19.20;99.90;;;;;;5051493;28;20028;-69
2021/09/10 01:51:16;;;;;;;17.00;8.75;;;19.20;99.90;;;;;;5051232;28;20075;-69
2021/09/10 01:53:41;;;;;;;16.02;9.05;;;19.20;99.90;;;;;;5051199;28;20637;-69
2021/09/10 01:56:07;;;;;;;16.20;9.30;;;19.30;99.90;;;;;;5051114;28;20083;-69
2021/09/10 01:58:33;;;;;;;16.95;9.07;;;19.30;99.90;;;;;;5050578;28;20086;-69
2021/09/10 02:00:59;;;;;;;15.93;8.93;;;19.30;99.90;;;;;;5037594;28;20092;-69
2021/09/10 02:03:25;;;;;;;14.55;8.57;;;19.30;99.90;;;;;;5050647;28;20388;-69
2021/09/10 02:05:50;;;;;;;15.45;7.63;;;19.20;99.90;;;;;;5049597;28;20163;-69
2021/09/10 02:08:16;;;;;;;15.85;8.10;;;19.30;99.90;;;;;;5049245;28;20079;-69
2021/09/10 02:10:42;;;;;;;14.68;8.07;;;19.20;99.90;;;;;;5051014;28;20078;-69
2021/09/10 02:13:07;;;;;;;13.80;8.02;;;19.10;99.90;;;;;;5049882;28;20044;-69
2021/09/10 02:15:33;;;;;;;16.75;8.73;;;19.10;99.90;;;;;;5050160;28;20477;-69
2021/09/10 02:17:58;;;;;;;15.45;7.60;;;19.00;99.90;;;;;;5036289;28;20051;-68
2021/09/10 02:20:24;;;;;;;15.00;8.27;;;19.00;99.90;;;;;;5049424;28;20788;-68
2021/09/10 02:22:49;;;;;;;16.17;8.27;;;19.00;99.90;;;;;;5050189;28;20074;-68
2021/09/10 02:25:15;;;;;;;13.60;7.72;;;19.00;99.90;;;;;;5049871;28;20021;-68
2021/09/10 02:27:41;;;;;;;14.48;8.07;;;19.00;99.90;;;;;;5050016;28;20543;-68
2021/09/10 02:30:07;;;;;;;14.95;7.90;;;19.00;99.90;;;;;;5049827;28;20029;-68
2021/09/10 02:32:32;;;;;;;15.68;8.38;;;19.00;99.90;;;;;;5049327;28;20060;-68
2021/09/10 02:34:58;;;;;;;16.33;8.13;;;19.00;99.90;;;;;;5049642;28;20064;-68
2021/09/10 02:37:24;;;;;;;12.80;7.30;;;19.10;99.90;;;;;;5047862;28;20119;-68
2021/09/10 02:39:50;;;;;;;13.30;7.30;;;19.10;99.90;;;;;;5049766;28;20044;-69
2021/09/10 02:42:16;;;;;;;12.68;7.50;;;19.10;99.90;;;;;;5049185;28;20021;-69
2021/09/10 02:44:41;;;;;;;16.88;8.85;;;19.10;99.90;;;;;;5049939;28;20496;-69
2021/09/10 02:47:07;;;;;;;15.10;7.88;;;19.20;99.90;;;;;;5049558;28;20033;-69
2021/09/10 02:49:33;;;;;;;16.30;7.63;;;19.90;99.90;;;;;;5048983;28;20029;-69
2021/09/10 02:51:58;;;;;;;15.90;8.65;;;19.20;99.90;;;;;;5048794;28;20033;-69
2021/09/10 02:54:24;;;;;;;14.93;8.57;;;19.20;99.90;;;;;;5049584;28;20078;-69
2021/09/10 02:56:49;;;;;;;13.57;7.85;;;19.20;99.90;;;;;;5050236;28;20025;-69
2021/09/10 02:59:15;;;;;;;13.73;8.23;;;19.10;99.90;;;;;;5049180;28;20025;-68
2021/09/10 03:01:44;;;;;;;16.55;8.57;;;19.10;99.90;;;;;;5050095;28;20096;-68
2021/09/10 03:04:11;;;;;;;13.68;8.00;;;19.10;99.90;;;;;;5050095;28;20240;-68
2021/09/10 03:06:36;;;;;;;15.07;8.18;;;19.20;99.90;;;;;;5049430;28;20465;-69
2021/09/10 03:09:02;;;;;;;14.98;7.63;;;19.10;99.90;;;;;;5048534;28;20032;-69
2021/09/10 03:11:28;;;;;;;14.07;8.18;;;19.10;99.90;;;;;;5049677;28;20488;-69
2021/09/10 03:13:54;;;;;;;16.27;8.90;;;19.10;99.90;;;;;;5049605;28;20063;-69
2021/09/10 03:16:20;;;;;;;16.38;8.38;;;19.10;99.90;;;;;;5049342;28;20049;-69
2021/09/10 03:18:45;;;;;;;17.10;8.32;;;19.10;99.90;;;;;;5049512;28;20056;-69
2021/09/10 03:21:11;;;;;;;13.98;7.55;;;19.10;99.90;;;;;;5037569;28;20025;-69
2021/09/10 03:23:36;;;;;;;15.65;8.38;;;19.00;99.90;;;;;;5048445;28;20405;-69
2021/09/10 03:26:02;;;;;;;15.23;8.35;;;19.10;99.90;;;;;;5049620;28;20037;-69
2021/09/10 03:28:28;;;;;;;15.35;7.75;;;19.10;99.90;;;;;;5048794;28;20036;-69
2021/09/10 03:30:53;;;;;;;15.05;8.02;;;19.10;99.90;;;;;;5049656;28;20025;-69
2021/09/10 03:33:19;;;;;;;16.08;7.72;;;19.10;99.90;;;;;;5047956;28;20029;-69
2021/09/10 03:35:45;;;;;;;14.48;7.88;;;19.00;99.90;;;;;;5035955;28;20061;-69
2021/09/10 03:38:11;;;;;;;14.80;7.50;;;19.00;99.90;;;;;;5048050;28;20437;-69
2021/09/10 03:40:36;;;;;;;15.93;8.07;;;19.00;99.90;;;;;;5049071;28;20369;-69
2021/09/10 03:43:06;;;;;;;14.23;7.43;;;19.00;99.90;;;;;;5049931;28;20060;-69
2021/09/10 03:45:33;;;;;;;13.70;8.02;;;18.90;99.90;;;;;;5047817;28;20539;-69
2021/09/10 03:47:58;;;;;;;16.00;8.05;;;18.90;99.90;;;;;;5049805;28;20086;-69
2021/09/10 03:50:24;;;;;;;16.00;7.43;;;18.90;99.90;;;;;;5048766;28;20037;-69
2021/09/10 03:52:50;;;;;;;17.40;7.85;;;18.90;99.90;;;;;;5049702;28;20060;-69
2021/09/10 03:55:17;;;;;;;15.20;7.75;;;18.80;99.90;;;;;;5048931;28;20127;-69
2021/09/10 03:57:42;;;;;;;14.25;7.88;;;18.80;99.90;;;;;;5049562;28;20053;-69
2021/09/10 04:00:09;;;;;;;18.40;8.82;;;18.80;99.90;;;;;;5049078;28;20041;-69
2021/09/10 04:02:34;;;;;;;14.73;8.07;;;18.80;99.90;;;;;;5048937;28;20044;-69
2021/09/10 04:05:00;;;;;;;14.77;8.35;;;18.80;99.90;;;;;;5049480;28;20025;-69
2021/09/10 04:07:26;;;;;;;20.40;8.35;;;18.70;99.90;;;;;;5046046;28;20029;-69
2021/09/10 04:09:51;;;;;;;17.65;8.88;;;18.70;99.90;;;;;;5038588;28;20032;-69
2021/09/10 04:12:17;;;;;;;19.45;8.80;;;18.70;99.90;;;;;;5048728;28;20025;-69
2021/09/10 04:14:43;;;;;;;15.25;8.18;;;18.70;99.90;;;;;;5042202;28;20061;-69
2021/09/10 04:17:08;;;;;;;19.88;8.77;;;18.60;99.90;;;;;;5045912;28;20472;-69
2021/09/10 04:19:34;;;;;;;13.90;8.25;;;18.60;99.90;;;;;;5043663;28;20037;-68
2021/09/10 04:21:59;;;;;;;17.05;8.45;;;18.60;99.90;;;;;;5042956;28;20029;-69
2021/09/10 04:24:25;;;;;;;16.63;8.85;;;18.70;99.90;;;;;;5045595;28;20029;-69
2021/09/10 04:26:52;;;;;;;16.75;8.55;;;18.70;99.90;;;;;;5046099;28;20033;-69
2021/09/10 04:29:18;;;;;;;18.92;8.85;;;18.60;99.90;;;;;;5044773;28;20063;-69
2021/09/10 04:31:44;;;;;;;16.42;8.82;;;18.50;99.90;;;;;;5043971;28;20052;-68
2021/09/10 04:34:09;;;;;;;15.40;8.85;;;18.50;99.90;;;;;;5047838;28;20039;-69
2021/09/10 04:36:35;;;;;;;18.23;8.90;;;18.50;99.90;;;;;;5047200;28;20092;-69
2021/09/10 04:39:01;;;;;;;14.27;8.52;;;18.50;99.90;;;;;;5044790;28;20036;-69
2021/09/10 04:41:26;;;;;;;16.55;9.25;;;18.60;99.90;;;;;;5048711;28;20035;-69
2021/09/10 04:43:52;;;;;;;16.67;9.77;;;18.60;99.90;;;;;;5036682;28;20021;-69
2021/09/10 04:46:18;;;;;;;20.60;9.43;;;18.60;99.90;;;;;;5050145;28;20469;-69
2021/09/10 04:48:43;;;;;;;18.10;9.27;;;18.60;99.90;;;;;;5046800;28;20701;-69
2021/09/10 04:51:09;;;;;;;18.23;8.93;;;18.70;99.90;;;;;;5041682;28;20033;-69
2021/09/10 04:53:36;;;;;;;18.33;9.65;;;18.70;99.90;;;;;;5048257;28;20024;-69
2021/09/10 04:56:02;;;;;;;17.52;8.85;;;18.60;99.90;;;;;;5051079;28;20024;-69
2021/09/10 04:58:28;;;;;;;16.85;9.15;;;18.70;99.90;;;;;;5049201;28;20029;-69
2021/09/10 05:00:54;;;;;;;16.83;9.52;;;18.70;99.90;;;;;;5050931;28;20411;-69
2021/09/10 05:03:20;;;;;;;16.98;9.15;;;18.70;99.90;;;;;;5050863;28;20017;-68
2021/09/10 05:05:45;;;;;;;17.80;9.45;;;18.80;99.90;;;;;;5048448;28;20033;-69
2021/09/10 05:08:11;;;;;;;17.33;9.60;;;18.70;99.90;;;;;;5050944;28;20142;-68
2021/09/10 05:10:36;;;;;;;20.55;10.45;;;18.80;99.90;;;;;;5050309;28;20469;-68
2021/09/10 05:13:02;;;;;;;20.83;10.95;;;18.70;99.90;;;;;;5047996;28;20025;-68
2021/09/10 05:15:28;;;;;;;19.50;11.48;;;18.70;99.90;;;;;;5048318;28;20068;-68
2021/09/10 05:17:53;;;;;;;22.00;12.57;;;18.70;99.90;;;;;;5048553;28;20069;-68
2021/09/10 05:20:19;;;;;;;24.17;11.52;;;18.70;99.90;;;;;;5050640;28;20028;-69
2021/09/10 05:22:45;;;;;;;21.50;10.93;;;18.70;99.90;;;;;;5047805;28;20033;-68
2021/09/10 05:25:11;;;;;;;18.33;10.77;;;18.70;99.90;;;;;;5050561;28;20122;-68
2021/09/10 05:27:37;;;;;;;17.48;9.80;;;18.70;99.90;;;;;;5050069;28;20032;-68
2021/09/10 05:30:02;;;;;;;20.27;10.32;;;18.70;99.90;;;;;;5045786;28;20389;-69
2021/09/10 05:32:28;;;;;;;18.17;9.57;;;18.70;99.90;;;;;;5045391;28;20033;-69
2021/09/10 05:34:54;;;;;;;16.98;10.05;;;18.70;99.90;;;;;;5049908;28;20032;-69
2021/09/10 05:37:19;;;;;;;19.27;10.13;;;18.80;99.90;;;;;;5050857;28;20382;-69
2021/09/10 05:39:45;;;;;;;17.52;9.68;;;18.80;99.90;;;;;;5047696;28;20084;-69
2021/09/10 05:42:11;;;;;;;18.05;10.13;;;18.80;99.90;;;;;;5048230;28;20557;-69
2021/09/10 05:44:36;;;;;;;18.17;10.13;;;18.90;99.90;;;;;;5048266;28;20052;-69
2021/09/10 05:47:02;;;;;;;18.23;9.90;;;19.00;99.90;;;;;;5045817;28;20029;-69
2021/09/10 05:49:28;;;;;;;18.63;10.52;;;19.00;99.90;;;;;;5047890;28;20069;-69
2021/09/10 05:51:53;;;;;;;20.10;10.27;;;19.10;99.90;;;;;;5042366;28;20043;-70
2021/09/10 05:54:19;;;;;;;17.55;10.43;;;19.20;99.90;;;;;;5044538;28;20029;-69
2021/09/10 05:56:44;;;;;;;17.05;9.35;;;19.20;99.90;;;;;;5048574;28;20726;-70
2021/09/10 05:59:10;;;;;;;19.58;9.60;;;19.30;99.90;;;;;;5046920;28;20088;-69
2021/09/10 06:01:36;;;;;;;19.83;10.27;;;19.30;99.90;;;;;;5046898;28;20021;-69
2021/09/10 06:04:01;;;;;;;16.98;9.57;;;19.30;99.90;;;;;;5045585;28;20354;-69
2021/09/10 06:06:27;;;;;;;18.45;9.48;;;19.40;99.90;;;;;;5036239;28;20088;-69
2021/09/10 06:08:53;;;;;;;20.60;9.38;;;19.40;99.90;;;;;;5045961;28;20260;-69
2021/09/10 06:11:18;;;;;;;17.30;10.13;;;19.50;99.90;;;;;;5046698;28;20076;-69
2021/09/10 06:13:44;;;;;;;17.38;10.40;;;19.50;99.90;;;;;;5042233;28;20036;-69
2021/09/10 06:16:09;;;;;;;20.33;10.82;;;19.50;99.90;;;;;;5043846;28;20024;-70
2021/09/10 06:18:35;;;;;;;17.83;10.85;;;19.50;99.90;;;;;;5033656;28;20465;-69
2021/09/10 06:21:03;;;;;;;19.40;10.63;;;19.40;99.90;;;;;;5032744;28;20025;-69
2021/09/10 06:23:29;;;;;;;21.50;11.63;;;19.40;99.90;;;;;;5037238;28;20425;-69
2021/09/10 06:25:54;;;;;;;19.23;9.73;;;19.40;99.90;;;;;;5050911;28;20029;-69
2021/09/10 06:28:20;;;;;;;17.63;9.85;;;19.30;99.90;;;;;;5045964;28;20033;-69
2021/09/10 06:30:45;;;;;;;17.83;9.98;;;19.30;99.90;;;;;;5050710;28;20031;-69
2021/09/10 06:33:11;;;;;;;18.77;9.40;;;19.30;99.90;;;;;;5051105;28;20071;-69
2021/09/10 06:35:37;;;;;;;18.70;9.45;;;19.20;99.90;;;;;;5050425;28;20021;-69
2021/09/10 06:38:03;;;;;;;18.58;9.68;;;19.30;99.90;;;;;;5046482;28;20040;-69
2021/09/10 06:40:29;;;;;;;16.40;9.43;;;19.30;99.90;;;;;;5036744;28;20032;-69
2021/09/10 06:42:54;;;;;;;17.45;9.75;;;19.30;99.90;;;;;;5049623;28;20365;-69
2021/09/10 06:45:22;;;;;;;17.02;10.25;;;19.30;99.90;;;;;;5048453;28;20025;-69
2021/09/10 06:47:48;;;;;;;18.15;10.07;;;19.40;99.90;;;;;;5045390;28;20444;-70
2021/09/10 06:50:13;;;;;;;19.38;9.77;;;19.50;99.90;;;;;;5044238;28;20029;-70
2021/09/10 06:52:42;;;;;;;16.25;9.35;;;19.70;99.90;;;;;;5048082;28;20025;-70
2021/09/10 06:55:09;;;;;;;15.82;9.30;;;19.70;99.90;;;;;;5043952;28;20226;-70
2021/09/10 06:57:35;;;;;;;20.60;10.50;;;19.80;99.90;;;;;;5040927;28;20027;-70
2021/09/10 07:00:02;;;;;;;20.75;11.75;;;19.80;99.90;;;;;;5042370;28;20036;-70
2021/09/10 07:02:28;;;;;;;24.70;11.02;;;19.90;99.90;;;;;;5050268;28;20523;-70
2021/09/10 07:04:53;;;;;;;17.73;10.65;;;20.10;99.90;;;;;;5043842;28;20053;-69
2021/09/10 07:07:19;;;;;;;23.20;10.60;;;20.20;99.90;;;;;;5045356;28;20112;-69
2021/09/10 07:09:44;;;;;;;16.73;9.75;;;20.20;99.90;;;;;;5045918;28;20036;-69
2021/09/10 07:12:10;;;;;;;14.07;8.18;;;20.20;99.90;;;;;;5045796;28;20530;-68
2021/09/10 07:14:36;;;;;;;16.05;8.32;;;20.20;99.90;;;;;;5046378;28;20567;-68
2021/09/10 07:17:02;;;;;;;19.27;8.88;;;20.10;99.90;;;;;;5044612;28;20119;-68
2021/09/10 07:19:28;;;;;;;14.63;8.27;;;20.20;99.90;;;;;;5046074;28;20103;-67
2021/09/10 07:21:53;;;;;;;14.55;8.00;;;20.30;99.90;;;;;;5038600;28;20482;-67
2021/09/10 07:24:19;;;;;;;16.77;8.25;;;20.60;99.90;;;;;;5032702;28;20512;-67
2021/09/10 07:26:45;;;;;;;13.98;7.88;;;20.80;99.90;;;;;;5041949;28;20071;-67
2021/09/10 07:29:12;;;;;;;16.83;8.27;;;21.00;99.90;;;;;;5049193;28;20025;-67
2021/09/10 07:31:37;;;;;;;13.98;8.10;;;21.30;99.90;;;;;;5042065;28;20096;-67
2021/09/10 07:34:05;;;;;;;13.45;7.88;;;21.40;99.90;;;;;;5046634;28;20099;-68
2021/09/10 07:36:31;;;;;;;12.55;7.28;;;21.50;99.90;;;;;;5045072;28;20422;-68
2021/09/10 07:38:56;;;;;;;16.92;7.38;;;21.30;99.90;;;;;;5049210;28;20029;-68
2021/09/10 07:41:22;;;;;;;12.23;6.75;;;21.20;99.90;;;;;;5042619;28;20026;-68
2021/09/10 07:43:47;;;;;;;14.02;7.47;;;21.10;99.90;;;;;;5039017;28;20108;-68
2021/09/10 07:46:14;;;;;;;15.82;7.45;;;21.00;99.90;;;;;;5049595;28;20052;-68
2021/09/10 07:48:40;;;;;;;16.20;7.05;;;21.10;99.90;;;;;;5050071;28;20456;-68
2021/09/10 07:51:06;;;;;;;14.82;7.32;;;21.00;99.90;;;;;;5049125;28;20102;-68
2021/09/10 07:53:31;;;;;;;13.07;7.40;;;20.90;99.90;;;;;;5037606;28;20017;-68
2021/09/10 07:55:57;;;;;;;14.75;7.45;;;20.90;99.90;;;;;;5045996;28;20446;-68
2021/09/10 07:58:23;;;;;;;12.23;6.82;;;21.00;99.90;;;;;;5042556;28;20477;-68
2021/09/10 08:00:48;;;;;;;13.05;6.75;;;21.10;99.90;;;;;;5048917;28;20032;-68
2021/09/10 08:03:14;;;;;;;13.95;6.72;;;21.20;99.90;;;;;;5034947;28;20089;-68
2021/09/10 08:05:40;;;;;;;12.63;6.60;;;21.20;99.90;;;;;;5044929;28;20077;-68
2021/09/10 08:08:06;;;;;;;14.00;7.03;;;21.30;99.90;;;;;;5048029;28;20051;-68
2021/09/10 08:10:32;;;;;;;13.70;6.75;;;21.40;99.90;;;;;;5044707;28;20470;-68
2021/09/10 08:12:57;;;;;;;12.95;7.70;;;21.50;99.90;;;;;;5037628;28;20474;-68
2021/09/10 08:15:23;;;;;;;13.35;6.95;;;21.30;99.90;;;;;;5039489;28;20025;-67
2021/09/10 08:17:48;;;;;;;13.23;6.65;;;21.50;99.90;;;;;;5035697;28;20025;-67
2021/09/10 08:20:14;;;;;;;14.85;6.70;;;21.70;99.90;;;;;;5035413;28;20120;-67
2021/09/10 08:22:40;;;;;;;12.10;6.25;;;22.00;99.90;;;;;;5048082;28;20474;-67
2021/09/10 08:25:08;;;;;;;11.05;5.88;;;22.50;99.90;;;;;;5049226;28;20029;-68
2021/09/10 08:27:34;;;;;;;11.27;6.18;;;22.90;99.90;;;;;;5047306;28;20056;-68
2021/09/10 08:29:59;;;;;;;11.23;6.03;;;23.40;99.90;;;;;;5045675;28;20040;-68
2021/09/10 08:32:26;;;;;;;9.75;5.10;;;24.00;99.90;;;;;;5047655;28;20079;-68
2021/09/10 08:34:52;;;;;;;14.60;5.15;;;24.40;99.90;;;;;;5046987;28;20041;-68
2021/09/10 08:37:19;;;;;;;11.10;4.90;;;24.70;99.90;;;;;;5051084;28;20078;-68
2021/09/10 08:39:45;;;;;;;9.40;3.92;;;24.80;99.90;;;;;;5052674;28;20025;-68
2021/09/10 08:42:11;;;;;;;9.80;3.40;;;24.00;99.90;;;;;;5051633;28;20029;-68
2021/09/10 08:44:42;;;;;;;7.85;4.25;;;23.30;99.90;;;;;;5045060;28;20036;-68
2021/09/10 08:47:09;;;;;;;8.60;3.72;;;23.10;99.90;;;;;;5041533;28;20036;-68
2021/09/10 08:49:35;;;;;;;8.23;3.75;;;22.70;99.90;;;;;;5044759;28;20079;-68
2021/09/10 08:52:02;;;;;;;7.20;3.40;;;23.40;99.90;;;;;;5050785;28;20045;-68
2021/09/10 08:54:27;;;;;;;6.97;3.50;;;24.80;99.90;;;;;;5048491;28;20025;-68
2021/09/10 08:56:54;;;;;;;7.22;3.38;;;25.60;99.90;;;;;;5032913;28;20390;-68
2021/09/10 08:59:21;;;;;;;10.20;4.13;;;25.80;99.90;;;;;;5043987;28;20096;-68
2021/09/10 09:01:46;;;;;;;7.30;3.50;;;26.00;99.90;;;;;;5051098;28;20017;-68
2021/09/10 09:04:13;;;;;;;8.55;3.80;;;26.20;99.90;;;;;;5041874;28;20373;-68
2021/09/10 09:06:39;;;;;;;7.85;3.55;;;25.60;99.90;;;;;;5048366;28;20022;-68
2021/09/10 09:09:04;;;;;;;13.05;4.35;;;25.20;99.90;;;;;;5048548;28;20025;-68
2021/09/10 09:11:30;;;;;;;8.77;3.90;;;24.80;99.90;;;;;;5051309;28;20021;-68
2021/09/10 09:14:02;;;;;;;9.82;4.63;;;25.40;99.90;;;;;;5039798;28;20020;-68
2021/09/10 09:16:37;;;;;;;7.93;4.13;;;26.20;99.90;;;;;;5050024;28;20053;-68
2021/09/10 09:19:07;;;;;;;10.40;4.40;;;26.80;99.90;;;;;;5051001;28;20496;-68
2021/09/10 09:21:35;;;;;;;8.52;4.18;;;26.00;99.90;;;;;;5051966;28;20135;-68
2021/09/10 09:24:13;;;;;;;8.18;3.80;;;25.40;99.90;;;;;;5051427;28;20473;-69
2021/09/10 09:26:40;;;;;;;8.43;3.70;;;25.20;99.90;;;;;;5048442;28;20045;-68
2021/09/10 09:29:08;;;;;;;8.38;3.35;;;25.80;99.90;;;;;;5043895;28;20026;-68
2021/09/10 09:31:35;;;;;;;8.75;3.50;;;26.40;99.90;;;;;;5038108;28;20500;-69
2021/09/10 09:34:02;;;;;;;7.25;3.13;;;27.70;99.90;;;;;;5047017;28;20540;-69
2021/09/10 09:36:28;;;;;;;5.70;2.80;;;28.10;99.90;;;;;;5047591;28;20017;-69
2021/09/10 09:38:55;;;;;;;6.68;3.08;;;28.80;99.90;;;;;;5048713;28;20030;-69
2021/09/10 09:41:22;;;;;;;8.02;3.13;;;29.10;99.90;;;;;;5044415;28;20090;-69
2021/09/10 09:44:14;;;;;;;7.10;2.80;;;29.50;99.90;;;;;;5042208;28;20021;-69
2021/09/10 09:46:41;;;;;;;7.35;2.95;;;29.50;99.90;;;;;;5032885;28;20028;-69
2021/09/10 09:49:11;;;;;;;6.65;2.55;;;29.30;99.90;;;;;;5040511;28;20040;-69
2021/09/10 09:51:55;;;;;;;8.60;2.83;;;28.30;99.90;;;;;;5048790;28;20022;-69
2021/09/10 09:54:22;;;;;;;8.13;3.05;;;26.90;99.90;;;;;;5046801;28;20056;-68
2021/09/10 09:56:48;;;;;;;6.05;2.30;;;26.60;99.90;;;;;;5050404;28;20461;-69
2021/09/10 09:59:15;;;;;;;6.65;2.47;;;27.80;99.90;;;;;;5051130;28;20055;-69
2021/09/10 10:01:43;;;;;;;6.35;2.75;;;27.60;99.90;;;;;;5050997;28;20074;-69
2021/09/10 10:04:09;;;;;;;6.68;2.70;;;27.80;99.90;;;;;;5049570;28;20013;-69
2021/09/10 10:06:35;;;;;;;6.00;2.58;;;28.60;99.90;;;;;;5050803;28;20029;-69
2021/09/10 10:09:02;;;;;;;8.10;2.83;;;29.30;99.90;;;;;;5049042;28;20033;-69
2021/09/10 10:11:50;;;;;;;6.78;2.70;;;28.70;99.90;;;;;;5049729;28;20025;-69
2021/09/10 10:14:31;;;;;;;6.40;2.90;;;28.30;99.90;;;;;;5034456;28;20025;-69
2021/09/10 10:16:57;;;;;;;12.07;2.95;;;28.30;99.90;;;;;;5050153;28;20409;-69
2021/09/10 10:19:24;;;;;;;7.32;2.20;;;28.40;99.90;;;;;;5050368;28;20125;-69
2021/09/10 10:21:52;;;;;;;5.88;2.20;;;28.00;99.90;;;;;;5049992;28;20045;-69
2021/09/10 10:24:47;;;;;;;6.05;2.47;;;28.10;99.90;;;;;;5050137;28;20059;-68
2021/09/10 10:27:44;;;;;;;6.85;2.40;;;29.50;99.90;;;;;;5018637;28;20052;-68
2021/09/10 10:30:18;;;;;;;5.60;1.90;;;29.70;99.40;;;;;;5024921;28;20036;-69
2021/09/10 10:32:52;;;;;;;5.70;2.22;;;30.50;97.50;;;;;;5046969;28;20067;-69
2021/09/10 10:35:26;;;;;;;5.65;2.10;;;29.10;98.10;;;;;;5035309;28;20029;-69
2021/09/10 10:38:03;;;;;;;6.13;2.50;;;27.40;99.90;;;;;;5046515;28;20040;-68
2021/09/10 10:40:33;;;;;;;6.55;2.28;;;26.80;99.90;;;;;;5037687;28;20036;-69
2021/09/10 10:43:04;;;;;;;7.90;2.50;;;27.10;99.90;;;;;;5048328;28;20116;-69
2021/09/10 10:45:42;;;;;;;6.00;2.28;;;26.90;99.90;;;;;;5051964;28;20029;-69
2021/09/10 10:48:29;;;;;;;11.00;2.80;;;26.40;99.90;;;;;;5039824;28;20087;-68
2021/09/10 10:51:02;;;;;;;7.57;2.83;;;25.50;99.90;;;;;;5040138;28;20104;-69
2021/09/10 10:53:34;;;;;;;7.22;2.80;;;26.80;99.90;;;;;;5045018;28;20020;-69
2021/09/10 10:56:25;;;;;;;5.00;1.88;;;27.40;99.90;;;;;;5038703;28;20029;-69
2021/09/10 10:59:13;;;;;;;6.25;2.28;;;27.40;99.90;;;;;;5048939;28;20417;-69
2021/09/10 11:02:16;;;;;;;11.27;2.22;;;27.90;99.90;;;;;;5040279;28;20025;-69
2021/09/10 11:04:44;;;;;;;5.97;2.40;;;27.80;99.90;;;;;;5043188;28;20171;-69
2021/09/10 11:07:10;;;;;;;7.68;2.78;;;28.50;99.90;;;;;;5035011;28;20083;-69
2021/09/10 11:09:35;;;;;;;7.03;2.75;;;27.70;99.90;;;;;;5049131;28;20032;-69
2021/09/10 11:12:01;;;;;;;6.28;2.70;;;27.70;99.90;;;;;;5045335;28;20056;-69
2021/09/10 11:14:31;;;;;;;9.25;2.67;;;27.30;99.90;;;;;;5045088;28;20024;-69
2021/09/10 11:17:13;;;;;;;7.93;2.95;;;26.60;99.90;;;;;;5046918;28;20036;-69
2021/09/10 11:19:45;;;;;;;5.78;2.25;;;27.30;99.90;;;;;;5047214;28;20099;-69
2021/09/10 11:22:11;;;;;;;10.02;3.17;;;26.90;99.90;;;;;;5041358;28;20025;-69
2021/09/10 11:24:37;;;;;;;6.68;3.03;;;26.80;99.90;;;;;;5048036;28;20099;-69
2021/09/10 11:27:20;;;;;;;6.88;3.22;;;26.80;99.90;;;;;;5043350;28;20517;-69
2021/09/10 11:29:46;;;;;;;8.27;3.47;;;26.40;99.90;;;;;;5039522;28;20030;-69
2021/09/10 11:32:22;;;;;;;7.90;3.05;;;26.30;99.90;;;;;;5045837;28;20474;-68
2021/09/10 11:34:48;;;;;;;8.85;3.10;;;26.90;99.90;;;;;;5043676;28;20029;-70
2021/09/10 11:37:26;;;;;;;7.30;3.40;;;26.90;99.90;;;;;;5039312;28;20021;-67
2021/09/10 11:39:53;;;;;;;6.50;3.58;;;27.50;99.90;;;;;;5037611;28;20029;-67
2021/09/10 11:42:34;;;;;;;8.02;3.45;;;28.50;99.90;;;;;;5039706;28;20127;-67
2021/09/10 11:45:11;;;;;;;4.95;1.98;;;28.80;99.90;;;;;;5048840;28;20025;-67
2021/09/10 11:47:38;;;;;;;7.43;2.90;;;28.20;99.90;;;;;;5045892;28;20029;-70
2021/09/10 11:50:08;;;;;;;8.85;3.33;;;28.00;99.90;;;;;;5041159;28;20037;-69
2021/09/10 11:52:37;;;;;;;7.53;3.40;;;27.80;99.90;;;;;;5054114;28;20017;-69
2021/09/10 11:55:17;;;;;;;7.63;2.92;;;28.30;99.90;;;;;;5041549;28;20516;-69
2021/09/10 11:57:44;;;;;;;10.07;4.13;;;28.40;99.90;;;;;;5035760;28;20112;-69
2021/09/10 12:00:26;;;;;;;9.40;3.97;;;28.00;99.90;;;;;;5034186;28;20049;-69
2021/09/10 12:02:59;;;;;;;8.77;4.50;;;27.70;99.90;;;;;;5038364;28;20414;-69
2021/09/10 12:05:25;;;;;;;9.18;4.22;;;27.10;99.90;;;;;;5047131;28;20055;-70
2021/09/10 12:07:53;;;;;;;10.02;4.20;;;26.80;99.90;;;;;;5050368;28;20033;-70
2021/09/10 12:10:32;;;;;;;11.57;4.65;;;27.10;99.90;;;;;;5051168;28;20029;-70
2021/09/10 12:13:15;;;;;;;9.13;4.47;;;27.60;99.90;;;;;;5042638;28;20021;-70
2021/09/10 12:15:43;;;;;;;9.60;5.00;;;27.40;99.90;;;;;;5053518;28;20416;-69
2021/09/10 12:18:14;;;;;;;11.68;5.70;;;26.50;99.90;;;;;;5052521;28;20430;-69
2021/09/10 12:20:41;;;;;;;9.52;4.90;;;26.20;99.90;;;;;;5051271;28;20059;-69
2021/09/10 12:23:07;;;;;;;10.65;5.00;;;26.20;99.90;;;;;;5041608;28;20029;-69
2021/09/10 12:25:45;;;;;;;8.65;4.30;;;26.20;99.90;;;;;;5052364;28;20060;-69
2021/09/10 12:28:19;;;;;;;9.93;4.20;;;26.00;99.90;;;;;;5040042;28;20135;-69
2021/09/10 12:30:50;;;;;;;9.07;4.60;;;25.40;99.90;;;;;;5040903;28;20037;-69
2021/09/10 12:33:18;;;;;;;9.07;4.03;;;25.00;99.90;;;;;;5040073;28;20048;-69
2021/09/10 12:35:45;;;;;;;8.82;3.97;;;25.00;99.90;;;;;;5044827;28;20450;-69
2021/09/10 12:38:17;;;;;;;8.50;4.45;;;24.50;99.90;;;;;;5041529;28;20374;-68
2021/09/10 12:40:49;;;;;;;11.30;4.72;;;24.50;99.90;;;;;;5035500;28;20029;-68